sensor_id;sensor_type;location;lat;lon;timestamp;pressure;altitude;pressure_sealevel;temperature;humidity
77823;BME280;67013;49.730;17.292;2023-05-09T00:01:08;99184.81;;;6.85;60.89
77823;BME280;67013;49.730;17.292;2023-05-09T00:03:39;99178.27;;;6.84;61.02
77823;BME280;67013;49.730;17.292;2023-05-09T00:06:10;99178.61;;;6.85;61.00
77823;BME280;67013;49.730;17.292;2023-05-09T00:08:40;99173.11;;;6.84;61.07
77823;BME280;67013;49.730;17.292;2023-05-09T00:11:10;99164.42;;;6.82;61.05
77823;BME280;67013;49.730;17.292;2023-05-09T00:13:39;99162.11;;;6.79;61.12
77823;BME280;67013;49.730;17.292;2023-05-09T00:16:11;99156.94;;;6.75;61.21
77823;BME280;67013;49.730;17.292;2023-05-09T00:18:40;99152.44;;;6.71;61.58
77823;BME280;67013;49.730;17.292;2023-05-09T00:21:10;99150.90;;;6.67;61.57
77823;BME280;67013;49.730;17.292;2023-05-09T00:23:40;99146.79;;;6.62;61.83
77823;BME280;67013;49.730;17.292;2023-05-09T00:26:10;99146.84;;;6.57;62.05
77823;BME280;67013;49.730;17.292;2023-05-09T00:28:39;99142.98;;;6.54;61.96
77823;BME280;67013;49.730;17.292;2023-05-09T00:31:09;99146.91;;;6.52;62.47
77823;BME280;67013;49.730;17.292;2023-05-09T00:33:38;99144.40;;;6.50;62.13
77823;BME280;67013;49.730;17.292;2023-05-09T00:36:08;99149.65;;;6.49;62.10
77823;BME280;67013;49.730;17.292;2023-05-09T00:38:37;99150.10;;;6.46;62.13
77823;BME280;67013;49.730;17.292;2023-05-09T00:41:07;99150.37;;;6.44;62.40
77823;BME280;67013;49.730;17.292;2023-05-09T00:43:36;99153.22;;;6.42;62.35
77823;BME280;67013;49.730;17.292;2023-05-09T00:46:06;99147.98;;;6.39;62.49
77823;BME280;67013;49.730;17.292;2023-05-09T00:48:35;99143.46;;;6.36;62.78
77823;BME280;67013;49.730;17.292;2023-05-09T00:51:05;99140.60;;;6.34;62.79
77823;BME280;67013;49.730;17.292;2023-05-09T00:53:35;99138.46;;;6.31;63.03
77823;BME280;67013;49.730;17.292;2023-05-09T00:56:05;99139.58;;;6.30;63.00
77823;BME280;67013;49.730;17.292;2023-05-09T00:58:35;99137.13;;;6.26;63.26
77823;BME280;67013;49.730;17.292;2023-05-09T01:01:05;99137.98;;;6.23;63.24
77823;BME280;67013;49.730;17.292;2023-05-09T01:03:37;99132.98;;;6.19;63.39
77823;BME280;67013;49.730;17.292;2023-05-09T01:06:12;99139.47;;;6.16;63.48
77823;BME280;67013;49.730;17.292;2023-05-09T01:08:52;99135.09;;;6.14;63.59
77823;BME280;67013;49.730;17.292;2023-05-09T01:11:33;99137.52;;;6.14;63.53
77823;BME280;67013;49.730;17.292;2023-05-09T01:14:13;99138.13;;;6.11;64.12
77823;BME280;67013;49.730;17.292;2023-05-09T01:16:48;99136.99;;;6.10;64.23
77823;BME280;67013;49.730;17.292;2023-05-09T01:19:44;99137.41;;;6.08;63.88
77823;BME280;67013;49.730;17.292;2023-05-09T01:22:18;99139.61;;;6.05;64.11
77823;BME280;67013;49.730;17.292;2023-05-09T01:25:09;99131.58;;;6.04;64.26
77823;BME280;67013;49.730;17.292;2023-05-09T01:27:49;99134.70;;;6.03;64.41
77823;BME280;67013;49.730;17.292;2023-05-09T01:30:22;99131.78;;;6.03;64.27
77823;BME280;67013;49.730;17.292;2023-05-09T01:32:55;99128.37;;;6.01;64.11
77823;BME280;67013;49.730;17.292;2023-05-09T01:35:28;99131.00;;;6.00;64.28
77823;BME280;67013;49.730;17.292;2023-05-09T01:37:59;99132.11;;;5.99;64.19
77823;BME280;67013;49.730;17.292;2023-05-09T01:40:32;99124.75;;;5.97;64.40
77823;BME280;67013;49.730;17.292;2023-05-09T01:43:04;99125.10;;;5.97;64.54
77823;BME280;67013;49.730;17.292;2023-05-09T01:45:37;99126.33;;;5.96;64.46
77823;BME280;67013;49.730;17.292;2023-05-09T01:48:08;99122.08;;;5.95;64.66
77823;BME280;67013;49.730;17.292;2023-05-09T01:50:40;99130.60;;;5.94;65.01
77823;BME280;67013;49.730;17.292;2023-05-09T01:53:11;99123.60;;;5.92;64.84
77823;BME280;67013;49.730;17.292;2023-05-09T01:55:42;99126.23;;;5.91;64.57
77823;BME280;67013;49.730;17.292;2023-05-09T01:58:13;99123.26;;;5.92;64.71
77823;BME280;67013;49.730;17.292;2023-05-09T02:00:45;99121.36;;;5.92;64.68
77823;BME280;67013;49.730;17.292;2023-05-09T02:03:15;99119.83;;;5.92;65.01
77823;BME280;67013;49.730;17.292;2023-05-09T02:05:45;99116.91;;;5.91;64.75
77823;BME280;67013;49.730;17.292;2023-05-09T02:08:18;99114.04;;;5.89;65.07
77823;BME280;67013;49.730;17.292;2023-05-09T02:10:49;99119.63;;;5.88;65.01
77823;BME280;67013;49.730;17.292;2023-05-09T02:13:20;99115.71;;;5.86;64.93
77823;BME280;67013;49.730;17.292;2023-05-09T02:15:49;99116.06;;;5.86;64.99
77823;BME280;67013;49.730;17.292;2023-05-09T02:18:19;99113.67;;;5.85;64.79
77823;BME280;67013;49.730;17.292;2023-05-09T02:20:49;99111.29;;;5.84;64.66
77823;BME280;67013;49.730;17.292;2023-05-09T02:23:20;99105.68;;;5.82;64.65
77823;BME280;67013;49.730;17.292;2023-05-09T02:25:49;99109.19;;;5.81;64.64
77823;BME280;67013;49.730;17.292;2023-05-09T02:28:22;99111.85;;;5.79;64.96
77823;BME280;67013;49.730;17.292;2023-05-09T02:30:56;99108.73;;;5.79;64.95
77823;BME280;67013;49.730;17.292;2023-05-09T02:33:27;99112.40;;;5.79;64.66
77823;BME280;67013;49.730;17.292;2023-05-09T02:35:58;99108.45;;;5.78;64.79
77823;BME280;67013;49.730;17.292;2023-05-09T02:38:27;99109.17;;;5.78;64.99
77823;BME280;67013;49.730;17.292;2023-05-09T02:40:57;99106.67;;;5.75;64.86
77823;BME280;67013;49.730;17.292;2023-05-09T02:43:26;99107.23;;;5.74;64.95
77823;BME280;67013;49.730;17.292;2023-05-09T02:45:56;99105.48;;;5.75;64.89
77823;BME280;67013;49.730;17.292;2023-05-09T02:48:25;99104.30;;;5.74;65.07
77823;BME280;67013;49.730;17.292;2023-05-09T02:50:55;99104.84;;;5.74;65.00
77823;BME280;67013;49.730;17.292;2023-05-09T02:53:25;99103.50;;;5.73;65.11
77823;BME280;67013;49.730;17.292;2023-05-09T02:55:55;99101.85;;;5.71;65.12
77823;BME280;67013;49.730;17.292;2023-05-09T02:58:24;99103.14;;;5.69;65.09
77823;BME280;67013;49.730;17.292;2023-05-09T03:00:53;99105.08;;;5.67;65.40
77823;BME280;67013;49.730;17.292;2023-05-09T03:03:23;99102.48;;;5.67;65.38
77823;BME280;67013;49.730;17.292;2023-05-09T03:05:52;99103.61;;;5.65;65.50
77823;BME280;67013;49.730;17.292;2023-05-09T03:08:22;99106.28;;;5.63;65.51
77823;BME280;67013;49.730;17.292;2023-05-09T03:10:51;99102.91;;;5.62;65.23
77823;BME280;67013;49.730;17.292;2023-05-09T03:13:21;99103.34;;;5.60;65.73
77823;BME280;67013;49.730;17.292;2023-05-09T03:15:50;99104.55;;;5.60;65.62
77823;BME280;67013;49.730;17.292;2023-05-09T03:18:20;99103.88;;;5.59;65.58
77823;BME280;67013;49.730;17.292;2023-05-09T03:20:49;99107.36;;;5.58;65.87
77823;BME280;67013;49.730;17.292;2023-05-09T03:23:19;99098.63;;;5.57;65.65
77823;BME280;67013;49.730;17.292;2023-05-09T03:25:48;99101.38;;;5.57;65.14
77823;BME280;67013;49.730;17.292;2023-05-09T03:28:18;99106.48;;;5.59;65.37
77823;BME280;67013;49.730;17.292;2023-05-09T03:30:48;99106.33;;;5.63;65.31
77823;BME280;67013;49.730;17.292;2023-05-09T03:33:18;99112.88;;;5.67;65.23
77823;BME280;67013;49.730;17.292;2023-05-09T03:35:47;99111.52;;;5.71;64.89
77823;BME280;67013;49.730;17.292;2023-05-09T03:38:16;99108.10;;;5.74;65.05
77823;BME280;67013;49.730;17.292;2023-05-09T03:40:46;99107.64;;;5.77;64.78
77823;BME280;67013;49.730;17.292;2023-05-09T03:43:15;99106.51;;;5.79;64.47
77823;BME280;67013;49.730;17.292;2023-05-09T03:45:45;99111.10;;;5.81;64.62
77823;BME280;67013;49.730;17.292;2023-05-09T03:48:15;99113.39;;;5.84;64.73
77823;BME280;67013;49.730;17.292;2023-05-09T03:50:44;99122.00;;;5.89;64.31
77823;BME280;67013;49.730;17.292;2023-05-09T03:53:14;99116.71;;;5.95;64.19
77823;BME280;67013;49.730;17.292;2023-05-09T03:55:43;99120.92;;;6.02;64.35
77823;BME280;67013;49.730;17.292;2023-05-09T03:58:13;99121.85;;;6.09;63.79
77823;BME280;67013;49.730;17.292;2023-05-09T04:00:43;99122.25;;;6.19;63.82
77823;BME280;67013;49.730;17.292;2023-05-09T04:03:12;99118.38;;;6.97;62.87
77823;BME280;67013;49.730;17.292;2023-05-09T04:05:42;99118.30;;;8.39;60.46
77823;BME280;67013;49.730;17.292;2023-05-09T04:08:11;99119.73;;;9.88;57.90
77823;BME280;67013;49.730;17.292;2023-05-09T04:10:41;99118.77;;;11.45;55.10
77823;BME280;67013;49.730;17.292;2023-05-09T04:13:11;99119.97;;;13.07;51.98
77823;BME280;67013;49.730;17.292;2023-05-09T04:15:41;99124.13;;;14.66;48.93
77823;BME280;67013;49.730;17.292;2023-05-09T04:18:10;99116.38;;;16.22;45.92
77823;BME280;67013;49.730;17.292;2023-05-09T04:20:39;99116.49;;;17.73;42.99
77823;BME280;67013;49.730;17.292;2023-05-09T04:23:09;99115.52;;;19.18;40.36
77823;BME280;67013;49.730;17.292;2023-05-09T04:25:38;99112.38;;;20.59;37.87
77823;BME280;67013;49.730;17.292;2023-05-09T04:28:08;99113.35;;;21.94;35.57
77823;BME280;67013;49.730;17.292;2023-05-09T04:30:37;99112.59;;;23.27;33.68
77823;BME280;67013;49.730;17.292;2023-05-09T04:33:07;99113.05;;;24.53;31.76
77823;BME280;67013;49.730;17.292;2023-05-09T04:35:36;99112.09;;;25.72;29.77
77823;BME280;67013;49.730;17.292;2023-05-09T04:38:06;99114.86;;;26.78;27.89
77823;BME280;67013;49.730;17.292;2023-05-09T04:40:35;99112.25;;;27.79;26.30
77823;BME280;67013;49.730;17.292;2023-05-09T04:43:05;99112.20;;;28.74;25.01
77823;BME280;67013;49.730;17.292;2023-05-09T04:45:34;99111.63;;;29.59;23.84
77823;BME280;67013;49.730;17.292;2023-05-09T04:48:04;99114.98;;;30.41;22.90
77823;BME280;67013;49.730;17.292;2023-05-09T04:50:34;99118.02;;;31.21;21.76
77823;BME280;67013;49.730;17.292;2023-05-09T04:53:03;99112.71;;;31.95;21.06
77823;BME280;67013;49.730;17.292;2023-05-09T04:55:33;99112.40;;;32.65;20.12
77823;BME280;67013;49.730;17.292;2023-05-09T04:58:02;99114.11;;;33.35;19.42
77823;BME280;67013;49.730;17.292;2023-05-09T05:00:32;99113.59;;;33.97;18.54
77823;BME280;67013;49.730;17.292;2023-05-09T05:03:01;99111.45;;;34.51;18.21
77823;BME280;67013;49.730;17.292;2023-05-09T05:05:31;99113.78;;;35.10;17.52
77823;BME280;67013;49.730;17.292;2023-05-09T05:08:00;99115.21;;;35.68;17.09
77823;BME280;67013;49.730;17.292;2023-05-09T05:10:30;99108.91;;;36.22;16.36
77823;BME280;67013;49.730;17.292;2023-05-09T05:12:59;99108.74;;;36.76;16.05
77823;BME280;67013;49.730;17.292;2023-05-09T05:17:58;99106.06;;;37.69;15.06
77823;BME280;67013;49.730;17.292;2023-05-09T05:20:27;99104.23;;;38.05;14.51
77823;BME280;67013;49.730;17.292;2023-05-09T05:22:56;99104.71;;;38.43;14.30
77823;BME280;67013;49.730;17.292;2023-05-09T05:25:26;99103.31;;;38.83;14.02
77823;BME280;67013;49.730;17.292;2023-05-09T05:27:55;99099.81;;;39.17;13.73
77823;BME280;67013;49.730;17.292;2023-05-09T05:30:25;99104.17;;;39.52;13.40
77823;BME280;67013;49.730;17.292;2023-05-09T05:32:54;99102.89;;;39.80;13.08
77823;BME280;67013;49.730;17.292;2023-05-09T05:35:24;99104.00;;;39.94;12.89
77823;BME280;67013;49.730;17.292;2023-05-09T05:37:55;99104.22;;;40.14;12.74
77823;BME280;67013;49.730;17.292;2023-05-09T05:40:24;99101.11;;;40.43;12.56
77823;BME280;67013;49.730;17.292;2023-05-09T05:42:54;99101.92;;;40.65;12.32
77823;BME280;67013;49.730;17.292;2023-05-09T05:45:23;99099.48;;;40.89;12.35
77823;BME280;67013;49.730;17.292;2023-05-09T05:47:53;99098.39;;;41.24;12.26
77823;BME280;67013;49.730;17.292;2023-05-09T05:50:23;99094.79;;;41.45;11.55
77823;BME280;67013;49.730;17.292;2023-05-09T05:52:52;99093.39;;;41.64;11.37
77823;BME280;67013;49.730;17.292;2023-05-09T05:55:22;99085.55;;;41.75;11.32
77823;BME280;67013;49.730;17.292;2023-05-09T05:57:51;99086.34;;;41.94;11.33
77823;BME280;67013;49.730;17.292;2023-05-09T06:00:21;99087.01;;;42.14;11.29
77823;BME280;67013;49.730;17.292;2023-05-09T06:02:50;99087.49;;;42.28;11.09
77823;BME280;67013;49.730;17.292;2023-05-09T06:05:20;99084.02;;;42.40;10.96
77823;BME280;67013;49.730;17.292;2023-05-09T06:07:49;99079.11;;;42.53;10.51
77823;BME280;67013;49.730;17.292;2023-05-09T06:10:19;99078.34;;;42.53;10.43
77823;BME280;67013;49.730;17.292;2023-05-09T06:12:48;99078.41;;;42.47;10.40
77823;BME280;67013;49.730;17.292;2023-05-09T06:15:18;99075.89;;;42.44;10.39
77823;BME280;67013;49.730;17.292;2023-05-09T06:17:47;99078.08;;;42.49;10.45
77823;BME280;67013;49.730;17.292;2023-05-09T06:20:17;99081.30;;;42.37;10.48
77823;BME280;67013;49.730;17.292;2023-05-09T06:22:46;99077.77;;;42.30;10.78
77823;BME280;67013;49.730;17.292;2023-05-09T06:25:16;99072.52;;;42.35;10.76
77823;BME280;67013;49.730;17.292;2023-05-09T06:27:46;99076.56;;;42.39;10.51
77823;BME280;67013;49.730;17.292;2023-05-09T06:30:15;99074.84;;;42.41;10.64
77823;BME280;67013;49.730;17.292;2023-05-09T06:32:45;99074.18;;;42.60;10.55
77823;BME280;67013;49.730;17.292;2023-05-09T06:35:14;99074.16;;;42.84;10.58
77823;BME280;67013;49.730;17.292;2023-05-09T06:37:44;99076.15;;;42.92;10.11
77823;BME280;67013;49.730;17.292;2023-05-09T06:40:13;99075.41;;;42.68;10.41
77823;BME280;67013;49.730;17.292;2023-05-09T06:42:43;99073.80;;;42.61;10.18
77823;BME280;67013;49.730;17.292;2023-05-09T06:45:13;99074.34;;;42.28;10.43
77823;BME280;67013;49.730;17.292;2023-05-09T06:47:41;99069.57;;;41.90;10.21
77823;BME280;67013;49.730;17.292;2023-05-09T06:50:11;99063.84;;;41.46;10.47
77823;BME280;67013;49.730;17.292;2023-05-09T06:52:40;99065.31;;;41.11;11.17
77823;BME280;67013;49.730;17.292;2023-05-09T06:55:10;99064.48;;;40.72;11.29
77823;BME280;67013;49.730;17.292;2023-05-09T06:57:40;99064.17;;;40.16;11.48
77823;BME280;67013;49.730;17.292;2023-05-09T07:00:12;99060.71;;;39.65;12.05
77823;BME280;67013;49.730;17.292;2023-05-09T07:02:42;99055.91;;;39.09;12.30
77823;BME280;67013;49.730;17.292;2023-05-09T07:05:11;99051.75;;;38.50;12.41
77823;BME280;67013;49.730;17.292;2023-05-09T07:07:41;99046.81;;;37.83;12.77
77823;BME280;67013;49.730;17.292;2023-05-09T07:10:11;99047.90;;;37.21;13.22
77823;BME280;67013;49.730;17.292;2023-05-09T07:12:40;99043.20;;;36.52;13.49
77823;BME280;67013;49.730;17.292;2023-05-09T07:15:11;99046.29;;;35.94;14.19
77823;BME280;67013;49.730;17.292;2023-05-09T07:17:40;99052.74;;;35.42;14.16
77823;BME280;67013;49.730;17.292;2023-05-09T07:20:10;99049.52;;;34.93;14.76
77823;BME280;67013;49.730;17.292;2023-05-09T07:22:40;99046.94;;;34.45;15.28
77823;BME280;67013;49.730;17.292;2023-05-09T07:25:10;99045.73;;;33.95;15.42
77823;BME280;67013;49.730;17.292;2023-05-09T07:27:39;99047.65;;;33.50;15.71
77823;BME280;67013;49.730;17.292;2023-05-09T07:30:10;99049.69;;;32.86;15.96
77823;BME280;67013;49.730;17.292;2023-05-09T07:32:40;99048.40;;;32.20;16.56
77823;BME280;67013;49.730;17.292;2023-05-09T07:35:10;99047.66;;;31.59;17.05
77823;BME280;67013;49.730;17.292;2023-05-09T07:37:39;99048.71;;;30.87;17.30
77823;BME280;67013;49.730;17.292;2023-05-09T07:40:10;99046.64;;;30.15;18.01
77823;BME280;67013;49.730;17.292;2023-05-09T07:42:40;99041.42;;;29.49;18.44
77823;BME280;67013;49.730;17.292;2023-05-09T07:45:13;99043.62;;;28.79;18.88
77823;BME280;67013;49.730;17.292;2023-05-09T07:47:43;99041.31;;;28.06;19.44
77823;BME280;67013;49.730;17.292;2023-05-09T07:50:12;99039.23;;;27.43;20.04
77823;BME280;67013;49.730;17.292;2023-05-09T07:52:42;99037.92;;;26.83;20.72
77823;BME280;67013;49.730;17.292;2023-05-09T07:55:11;99035.35;;;26.29;21.30
77823;BME280;67013;49.730;17.292;2023-05-09T07:57:41;99025.06;;;25.85;21.83
77823;BME280;67013;49.730;17.292;2023-05-09T08:00:13;99020.80;;;25.56;22.78
77823;BME280;67013;49.730;17.292;2023-05-09T08:02:43;99017.58;;;25.45;23.25
77823;BME280;67013;49.730;17.292;2023-05-09T08:05:13;99013.86;;;25.51;23.51
77823;BME280;67013;49.730;17.292;2023-05-09T08:07:42;99016.24;;;25.68;23.59
77823;BME280;67013;49.730;17.292;2023-05-09T08:10:12;99015.83;;;25.87;23.31
77823;BME280;67013;49.730;17.292;2023-05-09T08:12:41;99019.35;;;26.07;23.53
77823;BME280;67013;49.730;17.292;2023-05-09T08:15:11;99018.55;;;26.13;23.00
77823;BME280;67013;49.730;17.292;2023-05-09T08:17:41;99015.69;;;26.30;23.03
77823;BME280;67013;49.730;17.292;2023-05-09T08:20:12;99014.08;;;26.40;22.68
77823;BME280;67013;49.730;17.292;2023-05-09T08:22:42;99011.27;;;26.49;22.73
77823;BME280;67013;49.730;17.292;2023-05-09T08:25:12;99011.09;;;26.46;22.68
77823;BME280;67013;49.730;17.292;2023-05-09T08:27:43;99014.75;;;26.45;22.43
77823;BME280;67013;49.730;17.292;2023-05-09T08:30:14;99015.89;;;26.39;22.55
77823;BME280;67013;49.730;17.292;2023-05-09T08:32:44;99014.52;;;26.36;22.88
77823;BME280;67013;49.730;17.292;2023-05-09T08:35:13;99011.61;;;26.39;22.67
77823;BME280;67013;49.730;17.292;2023-05-09T08:37:43;99008.03;;;26.43;22.42
77823;BME280;67013;49.730;17.292;2023-05-09T08:40:15;99006.69;;;26.52;22.20
77823;BME280;67013;49.730;17.292;2023-05-09T08:42:45;99003.69;;;26.71;22.05
77823;BME280;67013;49.730;17.292;2023-05-09T08:45:17;98997.48;;;26.87;21.55
77823;BME280;67013;49.730;17.292;2023-05-09T08:47:51;98996.61;;;26.93;21.24
77823;BME280;67013;49.730;17.292;2023-05-09T08:50:22;98994.06;;;27.00;20.85
77823;BME280;67013;49.730;17.292;2023-05-09T08:52:52;98994.71;;;27.02;20.96
77823;BME280;67013;49.730;17.292;2023-05-09T08:55:22;98991.47;;;26.98;21.09
77823;BME280;67013;49.730;17.292;2023-05-09T08:57:53;98987.51;;;26.97;20.77
77823;BME280;67013;49.730;17.292;2023-05-09T09:00:23;98984.73;;;26.96;20.36
77823;BME280;67013;49.730;17.292;2023-05-09T09:02:54;98981.41;;;26.83;20.31
77823;BME280;67013;49.730;17.292;2023-05-09T09:05:25;98983.08;;;26.78;20.88
77823;BME280;67013;49.730;17.292;2023-05-09T09:07:54;98980.14;;;26.73;21.02
77823;BME280;67013;49.730;17.292;2023-05-09T09:10:25;98982.98;;;26.61;20.89
77823;BME280;67013;49.730;17.292;2023-05-09T09:12:56;98981.14;;;26.58;21.16
77823;BME280;67013;49.730;17.292;2023-05-09T09:15:29;98978.80;;;26.58;21.30
77823;BME280;67013;49.730;17.292;2023-05-09T09:18:01;98977.82;;;26.60;21.35
77823;BME280;67013;49.730;17.292;2023-05-09T09:20:34;98979.46;;;26.60;21.71
77823;BME280;67013;49.730;17.292;2023-05-09T09:23:04;98978.65;;;26.62;22.03
77823;BME280;67013;49.730;17.292;2023-05-09T09:25:38;98976.29;;;26.65;21.86
77823;BME280;67013;49.730;17.292;2023-05-09T09:28:08;98974.77;;;26.59;21.66
77823;BME280;67013;49.730;17.292;2023-05-09T09:30:44;98970.52;;;26.52;21.84
77823;BME280;67013;49.730;17.292;2023-05-09T09:33:20;98968.63;;;26.47;22.22
77823;BME280;67013;49.730;17.292;2023-05-09T09:35:51;98965.34;;;26.48;22.29
77823;BME280;67013;49.730;17.292;2023-05-09T09:38:22;98964.73;;;26.40;22.18
77823;BME280;67013;49.730;17.292;2023-05-09T09:40:55;98960.10;;;26.25;22.30
77823;BME280;67013;49.730;17.292;2023-05-09T09:43:29;98964.16;;;26.10;22.11
77823;BME280;67013;49.730;17.292;2023-05-09T09:46:01;98957.39;;;25.97;22.15
77823;BME280;67013;49.730;17.292;2023-05-09T09:48:33;98953.36;;;25.96;22.53
77823;BME280;67013;49.730;17.292;2023-05-09T09:51:10;98950.11;;;25.99;22.79
77823;BME280;67013;49.730;17.292;2023-05-09T09:53:43;98945.40;;;26.08;23.08
77823;BME280;67013;49.730;17.292;2023-05-09T09:56:13;98948.34;;;26.14;22.71
77823;BME280;67013;49.730;17.292;2023-05-09T09:58:43;98948.23;;;26.16;22.29
77823;BME280;67013;49.730;17.292;2023-05-09T10:01:13;98939.48;;;26.08;22.24
77823;BME280;67013;49.730;17.292;2023-05-09T10:03:44;98936.58;;;26.05;22.44
77823;BME280;67013;49.730;17.292;2023-05-09T10:06:15;98936.33;;;26.05;22.50
77823;BME280;67013;49.730;17.292;2023-05-09T10:08:45;98932.69;;;26.07;22.54
77823;BME280;67013;49.730;17.292;2023-05-09T10:11:16;98934.98;;;26.00;22.65
77823;BME280;67013;49.730;17.292;2023-05-09T10:13:45;98932.56;;;25.88;22.66
77823;BME280;67013;49.730;17.292;2023-05-09T10:16:15;98937.21;;;25.84;23.01
77823;BME280;67013;49.730;17.292;2023-05-09T10:18:45;98933.33;;;25.87;23.07
77823;BME280;67013;49.730;17.292;2023-05-09T10:21:15;98941.08;;;25.75;22.77
77823;BME280;67013;49.730;17.292;2023-05-09T10:23:46;98939.58;;;25.63;22.58
77823;BME280;67013;49.730;17.292;2023-05-09T10:26:21;98932.09;;;25.56;22.80
77823;BME280;67013;49.730;17.292;2023-05-09T10:28:55;98926.70;;;25.48;22.82
77823;BME280;67013;49.730;17.292;2023-05-09T10:31:26;98925.55;;;25.39;23.08
77823;BME280;67013;49.730;17.292;2023-05-09T10:33:56;98919.71;;;25.33;23.28
77823;BME280;67013;49.730;17.292;2023-05-09T10:36:28;98922.02;;;25.19;23.26
77823;BME280;67013;49.730;17.292;2023-05-09T10:38:58;98906.77;;;25.02;23.20
77823;BME280;67013;49.730;17.292;2023-05-09T10:41:29;98903.69;;;24.94;24.09
77823;BME280;67013;49.730;17.292;2023-05-09T10:43:59;98901.20;;;25.02;24.62
77823;BME280;67013;49.730;17.292;2023-05-09T10:46:28;98898.77;;;25.15;24.54
77823;BME280;67013;49.730;17.292;2023-05-09T10:48:58;98893.33;;;25.23;24.14
77823;BME280;67013;49.730;17.292;2023-05-09T10:51:29;98893.70;;;25.19;23.99
77823;BME280;67013;49.730;17.292;2023-05-09T10:53:59;98887.27;;;25.19;24.54
77823;BME280;67013;49.730;17.292;2023-05-09T10:56:32;98888.73;;;25.28;24.37
77823;BME280;67013;49.730;17.292;2023-05-09T10:59:03;98889.77;;;25.28;24.02
77823;BME280;67013;49.730;17.292;2023-05-09T11:01:34;98887.80;;;25.30;24.19
77823;BME280;67013;49.730;17.292;2023-05-09T11:04:09;98882.77;;;25.27;23.82
77823;BME280;67013;49.730;17.292;2023-05-09T11:06:44;98879.88;;;25.29;24.10
77823;BME280;67013;49.730;17.292;2023-05-09T11:09:27;98876.35;;;25.30;23.99
77823;BME280;67013;49.730;17.292;2023-05-09T11:11:58;98884.36;;;25.31;23.78
77823;BME280;67013;49.730;17.292;2023-05-09T11:14:31;98883.73;;;25.23;23.96
77823;BME280;67013;49.730;17.292;2023-05-09T11:17:03;98883.20;;;25.14;24.02
77823;BME280;67013;49.730;17.292;2023-05-09T11:22:25;98869.38;;;25.03;24.37
77823;BME280;67013;49.730;17.292;2023-05-09T11:25:01;98863.37;;;25.01;24.73
77823;BME280;67013;49.730;17.292;2023-05-09T11:27:41;98870.23;;;25.04;24.69
77823;BME280;67013;49.730;17.292;2023-05-09T11:30:15;98871.72;;;24.98;24.45
77823;BME280;67013;49.730;17.292;2023-05-09T11:32:46;98864.89;;;24.93;24.53
77823;BME280;67013;49.730;17.292;2023-05-09T11:35:17;98859.82;;;24.92;24.52
77823;BME280;67013;49.730;17.292;2023-05-09T11:37:50;98857.28;;;24.96;24.55
77823;BME280;67013;49.730;17.292;2023-05-09T11:40:22;98846.83;;;24.84;24.29
77823;BME280;67013;49.730;17.292;2023-05-09T11:42:53;98847.02;;;24.74;24.43
77823;BME280;67013;49.730;17.292;2023-05-09T11:45:24;98844.34;;;24.58;24.48
77823;BME280;67013;49.730;17.292;2023-05-09T11:47:54;98836.88;;;24.47;24.36
77823;BME280;67013;49.730;17.292;2023-05-09T11:50:25;98832.98;;;24.41;24.65
77823;BME280;67013;49.730;17.292;2023-05-09T11:52:54;98829.20;;;24.42;25.00
77823;BME280;67013;49.730;17.292;2023-05-09T11:55:24;98822.41;;;24.50;25.26
77823;BME280;67013;49.730;17.292;2023-05-09T11:57:57;98820.90;;;24.58;25.10
77823;BME280;67013;49.730;17.292;2023-05-09T12:00:27;98824.32;;;24.65;24.53
77823;BME280;67013;49.730;17.292;2023-05-09T12:02:56;98822.94;;;24.57;24.43
77823;BME280;67013;49.730;17.292;2023-05-09T12:05:26;98820.13;;;24.47;24.68
77823;BME280;67013;49.730;17.292;2023-05-09T12:07:56;98813.34;;;24.44;24.75
77823;BME280;67013;49.730;17.292;2023-05-09T12:10:30;98807.98;;;24.50;24.88
77823;BME280;67013;49.730;17.292;2023-05-09T12:13:00;98805.52;;;24.58;24.68
77823;BME280;67013;49.730;17.292;2023-05-09T12:15:34;98802.92;;;24.58;24.57
77823;BME280;67013;49.730;17.292;2023-05-09T12:18:05;98805.92;;;24.64;24.86
77823;BME280;67013;49.730;17.292;2023-05-09T12:20:43;98800.35;;;24.64;24.42
77823;BME280;67013;49.730;17.292;2023-05-09T12:23:14;98796.98;;;24.63;24.38
77823;BME280;67013;49.730;17.292;2023-05-09T12:25:51;98791.79;;;24.66;24.46
77823;BME280;67013;49.730;17.292;2023-05-09T12:28:23;98789.21;;;24.68;24.26
77823;BME280;67013;49.730;17.292;2023-05-09T12:30:53;98792.66;;;24.68;24.09
77823;BME280;67013;49.730;17.292;2023-05-09T12:33:24;98784.44;;;24.59;24.04
77823;BME280;67013;49.730;17.292;2023-05-09T12:36:05;98780.71;;;24.53;24.08
77823;BME280;67013;49.730;17.292;2023-05-09T12:38:35;98776.41;;;24.44;23.99
77823;BME280;67013;49.730;17.292;2023-05-09T12:41:06;98779.08;;;24.37;23.92
77823;BME280;67013;49.730;17.292;2023-05-09T12:43:37;98770.75;;;24.28;23.91
77823;BME280;67013;49.730;17.292;2023-05-09T12:46:07;98769.73;;;24.23;24.22
77823;BME280;67013;49.730;17.292;2023-05-09T12:48:37;98766.83;;;24.12;23.79
77823;BME280;67013;49.730;17.292;2023-05-09T12:51:07;98764.94;;;23.88;23.94
77823;BME280;67013;49.730;17.292;2023-05-09T12:53:39;98764.33;;;23.60;24.15
77823;BME280;67013;49.730;17.292;2023-05-09T12:56:14;98762.48;;;23.37;24.85
77823;BME280;67013;49.730;17.292;2023-05-09T12:58:50;98758.09;;;23.31;24.78
77823;BME280;67013;49.730;17.292;2023-05-09T13:01:21;98754.19;;;23.28;24.99
77823;BME280;67013;49.730;17.292;2023-05-09T13:04:01;98748.64;;;23.30;25.08
77823;BME280;67013;49.730;17.292;2023-05-09T13:06:31;98739.64;;;23.32;25.28
77823;BME280;67013;49.730;17.292;2023-05-09T13:09:01;98737.04;;;23.33;24.99
77823;BME280;67013;49.730;17.292;2023-05-09T13:11:32;98733.05;;;23.35;24.77
77823;BME280;67013;49.730;17.292;2023-05-09T13:14:04;98726.15;;;23.31;24.46
77823;BME280;67013;49.730;17.292;2023-05-09T13:16:34;98718.88;;;23.19;23.98